createdAt,value
2023-01-10T00:00:57.122Z,92.77
2023-01-10T00:03:24.043Z,92.15
2023-01-10T00:05:50.994Z,92.39
2023-01-10T00:08:18.002Z,91.98
2023-01-10T00:10:44.904Z,92.43
2023-01-10T00:13:24.364Z,92.31
2023-01-10T00:15:54.200Z,92.25
2023-01-10T00:18:21.937Z,91.81
2023-01-10T00:20:49.533Z,92.07
2023-01-10T00:23:18.330Z,92.71
2023-01-10T00:25:46.084Z,92.46
2023-01-10T00:28:23.612Z,92.59
2023-01-10T00:31:12.158Z,92.10
2023-01-10T00:33:39.208Z,92.43
2023-01-10T00:36:09.756Z,92.08
2023-01-10T00:38:36.917Z,92.58
2023-01-10T00:41:24.619Z,92.62
2023-01-10T00:43:57.264Z,92.14
2023-01-10T00:46:24.557Z,92.41
2023-01-10T00:48:51.513Z,92.45
2023-01-10T00:51:18.974Z,92.58
2023-01-10T00:53:45.888Z,92.52
2023-01-10T00:56:12.898Z,92.72
2023-01-10T00:58:39.810Z,92.36
2023-01-10T01:01:06.810Z,92.02
2023-01-10T01:03:34.361Z,92.30
2023-01-10T01:06:06.205Z,92.24
2023-01-10T01:08:33.548Z,92.47
2023-01-10T01:11:00.933Z,92.10
2023-01-10T01:13:27.829Z,92.01
2023-01-10T01:15:59.316Z,91.85
2023-01-10T01:18:27.387Z,91.91
2023-01-10T01:20:57.944Z,91.83
2023-01-10T01:23:25.049Z,91.81
2023-01-10T01:25:53.856Z,91.81
2023-01-10T01:28:21.911Z,91.96
2023-01-10T01:30:50.324Z,91.95
2023-01-10T01:33:18.763Z,91.76
2023-01-10T01:35:48.862Z,91.68
2023-01-10T01:38:16.702Z,92.01
2023-01-10T01:40:44.884Z,92.25
2023-01-10T01:43:26.702Z,91.53
2023-01-10T01:45:55.109Z,91.59
2023-01-10T01:48:42.188Z,91.69
2023-01-10T01:51:26.242Z,91.87
2023-01-10T01:54:02.262Z,91.96
2023-01-10T01:56:38.568Z,91.71
2023-01-10T01:59:21.985Z,91.77
2023-01-10T02:01:52.817Z,92.08
2023-01-10T02:04:30.313Z,91.48
2023-01-10T02:06:58.828Z,91.79
2023-01-10T02:09:43.545Z,91.49
2023-01-10T02:12:10.710Z,91.48
2023-01-10T02:14:38.397Z,91.74
2023-01-10T02:17:08.817Z,91.75
2023-01-10T02:20:11.718Z,91.56
2023-01-10T02:23:35.687Z,91.45
2023-01-10T02:26:42.719Z,91.27
2023-01-10T02:29:41.935Z,91.11
2023-01-10T02:32:40.631Z,91.36
2023-01-10T02:35:49.912Z,90.92
2023-01-10T02:38:35.069Z,91.57
2023-01-10T02:41:18.793Z,91.55
2023-01-10T02:43:54.258Z,91.43
2023-01-10T02:46:30.996Z,91.04
2023-01-10T02:48:57.983Z,91.53
2023-01-10T02:51:33.306Z,91.11
2023-01-10T02:54:30.618Z,90.95
2023-01-10T02:57:09.711Z,91.19
2023-01-10T03:00:10.494Z,90.92
2023-01-10T03:03:08.351Z,91.21
2023-01-10T03:05:52.977Z,91.10
2023-01-10T03:08:48.383Z,91.01
2023-01-10T03:11:15.674Z,91.53
2023-01-10T03:14:03.703Z,91.32
2023-01-10T03:16:34.591Z,91.24
2023-01-10T03:19:08.292Z,90.94
2023-01-10T03:21:38.725Z,91.24
2023-01-10T03:24:24.012Z,91.12
2023-01-10T03:27:11.315Z,90.77
2023-01-10T03:30:21.339Z,90.86
2023-01-10T03:32:48.385Z,90.96
2023-01-10T03:35:15.924Z,91.27
2023-01-10T03:38:08.351Z,90.53
2023-01-10T03:41:03.601Z,90.77
2023-01-10T03:44:16.065Z,91.13
2023-01-10T03:46:58.099Z,90.88
2023-01-10T03:49:27.339Z,91.03
2023-01-10T03:51:55.227Z,90.88
2023-01-10T03:54:22.255Z,91.12
2023-01-10T03:56:51.503Z,91.08
2023-01-10T03:59:26.634Z,91.03
2023-01-10T04:01:55.270Z,91.11
2023-01-10T04:04:22.396Z,91.04
2023-01-10T04:06:49.428Z,91.22
2023-01-10T04:09:16.380Z,90.99
2023-01-10T04:11:43.294Z,91.26
2023-01-10T04:14:10.229Z,90.92
2023-01-10T04:16:37.164Z,91.18
2023-01-10T04:19:04.161Z,90.99
2023-01-10T04:21:31.091Z,91.03
2023-01-10T04:23:58.002Z,91.04
2023-01-10T04:26:25.998Z,91.25
2023-01-10T04:28:52.945Z,91.34
2023-01-10T04:31:20.016Z,91.15
2023-01-10T04:33:46.979Z,91.28
2023-01-10T04:36:13.882Z,91.15
2023-01-10T04:38:40.791Z,90.99
2023-01-10T04:41:07.717Z,90.93
2023-01-10T04:43:35.034Z,90.99
2023-01-10T04:46:02.080Z,91.18
2023-01-10T04:48:29.027Z,91.37
2023-01-10T04:50:55.959Z,91.38
2023-01-10T04:53:23.052Z,91.15
2023-01-10T04:55:50.007Z,91.19
2023-01-10T04:58:17.025Z,91.34
2023-01-10T05:00:43.963Z,91.52
2023-01-10T05:03:10.956Z,91.32
2023-01-10T05:05:37.908Z,91.53
2023-01-10T05:08:05.398Z,91.37
2023-01-10T05:10:32.302Z,92.06
2023-01-10T05:12:59.208Z,91.99
2023-01-10T05:15:26.146Z,91.81
2023-01-10T05:17:59.483Z,92.00
2023-01-10T05:20:26.857Z,91.84
2023-01-10T05:22:53.816Z,91.78
2023-01-10T05:25:20.733Z,92.22
2023-01-10T05:27:47.645Z,91.94
2023-01-10T05:30:15.011Z,92.29
2023-01-10T05:32:42.082Z,92.17
2023-01-10T05:35:09.970Z,91.86
2023-01-10T05:37:38.134Z,92.16
2023-01-10T05:40:06.246Z,91.76
2023-01-10T05:42:33.571Z,92.22
2023-01-10T05:45:00.544Z,92.01
2023-01-10T05:47:27.584Z,92.26
2023-01-10T05:49:54.502Z,92.38
2023-01-10T05:52:24.312Z,92.08
2023-01-10T05:54:51.268Z,91.88
2023-01-10T05:57:19.104Z,91.85
2023-01-10T05:59:46.029Z,91.97
2023-01-10T06:02:13.368Z,91.96
2023-01-10T06:04:40.350Z,91.82
2023-01-10T06:07:07.279Z,91.88
2023-01-10T06:09:34.175Z,91.80
2023-01-10T06:12:01.121Z,92.02
2023-01-10T06:14:28.148Z,91.98
2023-01-10T06:16:55.081Z,92.23
2023-01-10T06:19:21.992Z,91.74
2023-01-10T06:21:48.884Z,91.96
2023-01-10T06:24:15.821Z,92.11
2023-01-10T06:26:42.754Z,92.11
2023-01-10T06:29:09.831Z,91.68
2023-01-10T06:31:36.801Z,92.04
2023-01-10T06:34:03.796Z,91.94
2023-01-10T06:36:30.738Z,92.12
2023-01-10T06:38:57.655Z,92.03
2023-01-10T06:41:24.628Z,92.08
2023-01-10T06:43:51.545Z,92.12
2023-01-10T06:46:19.685Z,92.04
2023-01-10T06:48:47.723Z,92.14
2023-01-10T06:51:19.111Z,92.22
2023-01-10T06:53:47.389Z,92.01
2023-01-10T06:56:14.349Z,92.27
2023-01-10T06:58:41.291Z,92.24
2023-01-10T07:01:14.819Z,92.11
2023-01-10T07:03:42.222Z,91.75
2023-01-10T07:06:12.508Z,92.14
2023-01-10T07:08:42.103Z,91.67
2023-01-10T07:11:10.217Z,91.74
2023-01-10T07:13:37.577Z,91.96
2023-01-10T07:16:07.572Z,91.91
2023-01-10T07:18:36.110Z,91.81
2023-01-10T07:21:03.641Z,91.90
2023-01-10T07:23:31.550Z,92.03
2023-01-10T07:26:02.738Z,91.67
2023-01-10T07:28:29.955Z,91.78
2023-01-10T07:31:00.287Z,91.70
2023-01-10T07:33:28.442Z,91.69
2023-01-10T07:35:55.804Z,91.88
2023-01-10T07:38:22.743Z,91.62
2023-01-10T07:40:49.668Z,92.02
2023-01-10T07:43:16.573Z,92.33
2023-01-10T07:45:43.510Z,92.16
2023-01-10T07:48:10.595Z,92.11
2023-01-10T07:50:38.514Z,92.02
2023-01-10T07:53:07.661Z,92.26
2023-01-10T07:55:38.944Z,92.00
2023-01-10T07:58:10.534Z,92.26
2023-01-10T08:00:37.670Z,92.27
2023-01-10T08:03:06.181Z,92.41
2023-01-10T08:05:33.905Z,92.34
2023-01-10T08:08:09.234Z,92.14
2023-01-10T08:10:37.739Z,92.24
2023-01-10T08:13:17.760Z,92.31
2023-01-10T08:15:47.208Z,92.30
2023-01-10T08:18:14.281Z,92.44
2023-01-10T08:20:41.760Z,91.94
2023-01-10T08:23:08.693Z,92.44
2023-01-10T08:25:36.536Z,92.16
2023-01-10T08:28:04.505Z,92.22
2023-01-10T08:30:31.792Z,92.05
2023-01-10T08:33:01.252Z,92.40
2023-01-10T08:35:28.233Z,91.98
2023-01-10T08:38:00.037Z,92.42
2023-01-10T08:40:27.449Z,91.88
2023-01-10T08:43:04.095Z,92.13
2023-01-10T08:45:31.165Z,91.94
2023-01-10T08:47:58.252Z,92.07
2023-01-10T08:50:25.585Z,92.13
2023-01-10T08:52:52.572Z,91.77
2023-01-10T08:55:20.793Z,91.76
2023-01-10T08:57:47.822Z,91.87
2023-01-10T09:00:15.428Z,91.80
2023-01-10T09:02:42.771Z,91.92
2023-01-10T09:05:22.248Z,91.98
2023-01-10T09:07:59.911Z,92.07
2023-01-10T09:10:28.580Z,91.97
2023-01-10T09:12:58.610Z,91.78
2023-01-10T09:15:32.299Z,92.07
2023-01-10T09:18:05.586Z,91.86
2023-01-10T09:20:36.454Z,91.88
2023-01-10T09:23:13.580Z,92.19
2023-01-10T09:25:40.486Z,91.95
2023-01-10T09:28:07.608Z,92.49
2023-01-10T09:30:35.059Z,92.16
2023-01-10T09:33:02.867Z,92.30
2023-01-10T09:35:31.912Z,92.32
2023-01-10T09:38:03.491Z,92.30
2023-01-10T09:40:54.890Z,92.21
2023-01-10T09:43:52.849Z,92.43
2023-01-10T09:46:44.019Z,92.36
2023-01-10T09:49:43.983Z,92.32
2023-01-10T09:52:31.085Z,92.31
2023-01-10T09:55:06.090Z,92.34
2023-01-10T09:57:33.194Z,92.81
2023-01-10T10:00:02.186Z,92.57
2023-01-10T10:02:45.380Z,92.56
2023-01-10T10:05:25.580Z,92.34
2023-01-10T10:07:56.675Z,92.62
2023-01-10T10:10:33.947Z,92.78
2023-01-10T10:13:28.323Z,92.72
2023-01-10T10:16:21.707Z,92.61
2023-01-10T10:19:10.372Z,92.74
2023-01-10T10:22:06.202Z,92.63
2023-01-10T10:25:11.830Z,92.49
2023-01-10T10:28:23.841Z,92.61
2023-01-10T10:31:24.003Z,92.45
2023-01-10T10:34:24.950Z,92.28
2023-01-10T10:37:09.210Z,92.75
2023-01-10T10:39:47.285Z,92.82
2023-01-10T10:42:18.491Z,92.46
2023-01-10T10:45:11.606Z,92.29
2023-01-10T10:47:42.957Z,92.49
2023-01-10T10:50:16.066Z,92.52
2023-01-10T10:52:45.482Z,92.23
2023-01-10T10:55:31.065Z,92.47
2023-01-10T10:58:00.484Z,92.58
2023-01-10T11:00:29.520Z,92.35
2023-01-10T11:03:25.584Z,92.28
2023-01-10T11:05:53.272Z,92.06
2023-01-10T11:08:22.627Z,92.43
2023-01-10T11:10:59.108Z,92.02
2023-01-10T11:13:35.083Z,92.35
2023-01-10T11:16:05.922Z,91.87
2023-01-10T11:18:33.960Z,92.19
2023-01-10T11:21:06.231Z,92.02
2023-01-10T11:23:54.108Z,91.92
2023-01-10T11:26:23.912Z,91.67
2023-01-10T11:29:18.672Z,91.87
2023-01-10T11:31:47.266Z,92.00
2023-01-10T11:34:58.835Z,91.79
2023-01-10T11:37:34.499Z,91.79
2023-01-10T11:40:25.684Z,91.79
2023-01-10T11:42:54.842Z,91.77
2023-01-10T11:45:31.350Z,91.92
2023-01-10T11:48:34.197Z,91.74
2023-01-10T11:51:27.368Z,91.48
2023-01-10T11:54:10.161Z,91.66
2023-01-10T11:56:41.316Z,91.71
2023-01-10T11:59:18.841Z,91.38
2023-01-10T12:01:54.957Z,91.62
2023-01-10T12:04:23.343Z,91.68
2023-01-10T12:06:55.392Z,91.88
2023-01-10T12:09:45.334Z,91.93
2023-01-10T12:12:25.950Z,91.74
2023-01-10T12:14:55.207Z,91.56
2023-01-10T12:17:21.984Z,91.56
2023-01-10T12:19:53.153Z,91.76
2023-01-10T12:22:26.799Z,91.14
2023-01-10T12:24:55.848Z,91.02
2023-01-10T12:27:25.648Z,90.89
2023-01-10T12:30:14.141Z,90.91
2023-01-10T12:32:53.881Z,91.17
2023-01-10T12:35:34.218Z,90.72
2023-01-10T12:38:09.684Z,90.56
2023-01-10T12:40:52.085Z,90.81
2023-01-10T12:43:49.481Z,90.64
2023-01-10T12:47:13.354Z,90.85
2023-01-10T12:50:08.381Z,90.66
2023-01-10T12:52:59.847Z,90.73
2023-01-10T12:55:34.370Z,91.15
2023-01-10T12:58:05.173Z,90.78
2023-01-10T13:00:48.697Z,90.71
2023-01-10T13:03:21.223Z,90.53
2023-01-10T13:05:49.731Z,90.98
2023-01-10T13:08:23.731Z,90.92
2023-01-10T13:10:54.463Z,90.72
2023-01-10T13:13:35.822Z,90.43
2023-01-10T13:16:23.627Z,90.93
2023-01-10T13:19:12.042Z,90.55
2023-01-10T13:21:42.580Z,90.49
2023-01-10T13:24:15.751Z,90.05
2023-01-10T13:27:03.894Z,90.24
2023-01-10T13:29:37.456Z,90.00
2023-01-10T13:32:28.539Z,90.42
2023-01-10T13:35:09.667Z,90.84
2023-01-10T13:37:38.524Z,91.05
2023-01-10T13:40:06.300Z,90.46
2023-01-10T13:42:56.246Z,90.54
2023-01-10T13:45:31.228Z,90.62
2023-01-10T13:48:01.651Z,90.51
2023-01-10T13:50:37.763Z,90.39
2023-01-10T13:53:05.145Z,90.40
2023-01-10T13:55:58.075Z,88.48
2023-01-10T13:58:43.241Z,89.34
2023-01-10T14:01:56.164Z,88.74
2023-01-10T14:04:34.570Z,89.26
2023-01-10T14:07:28.978Z,89.37
2023-01-10T14:10:19.598Z,89.58
2023-01-10T14:13:15.120Z,89.67
2023-01-10T14:15:48.497Z,89.86
2023-01-10T14:18:35.552Z,90.15
2023-01-10T14:21:08.938Z,90.28
2023-01-10T14:23:48.402Z,90.41
2023-01-10T14:26:37.831Z,90.50
2023-01-10T14:29:13.766Z,90.21
2023-01-10T14:31:49.664Z,90.39
2023-01-10T14:34:36.684Z,89.70
2023-01-10T14:37:09.524Z,90.19
2023-01-10T14:39:37.081Z,90.20
2023-01-10T14:42:12.516Z,90.09
2023-01-10T14:44:49.494Z,89.77
2023-01-10T14:47:30.825Z,89.81
2023-01-10T14:50:04.554Z,89.43
2023-01-10T14:52:31.949Z,89.51
2023-01-10T14:55:16.688Z,88.98
2023-01-10T14:57:58.627Z,89.69
2023-01-10T15:00:36.663Z,90.01
2023-01-10T15:03:04.569Z,89.70
2023-01-10T15:05:39.185Z,89.51
2023-01-10T15:08:27.555Z,89.59
2023-01-10T15:11:04.254Z,89.62
2023-01-10T15:13:34.681Z,89.58
2023-01-10T15:16:01.930Z,89.44
2023-01-10T15:18:43.321Z,89.25
2023-01-10T15:21:13.449Z,89.53
2023-01-10T15:23:43.992Z,89.18
2023-01-10T15:26:28.886Z,89.50
2023-01-10T15:29:23.939Z,89.39
2023-01-10T15:31:53.249Z,88.71
2023-01-10T15:34:26.405Z,89.27
2023-01-10T15:36:57.259Z,88.70
2023-01-10T15:39:29.895Z,88.73
2023-01-10T15:42:09.549Z,88.67
2023-01-10T15:44:40.191Z,88.22
2023-01-10T15:47:52.612Z,87.74
2023-01-10T15:50:33.829Z,87.55
2023-01-10T15:53:10.587Z,88.00
2023-01-10T15:55:52.550Z,88.05
2023-01-10T15:58:30.628Z,87.90
2023-01-10T16:00:59.718Z,87.34
2023-01-10T16:03:43.920Z,87.58
2023-01-10T16:06:25.683Z,87.43
2023-01-10T16:08:57.177Z,87.66
2023-01-10T16:11:51.328Z,87.06
2023-01-10T16:14:18.231Z,86.20
2023-01-10T16:16:45.140Z,86.44
2023-01-10T16:19:14.562Z,86.90
2023-01-10T16:21:46.866Z,87.06
2023-01-10T16:24:23.081Z,86.86
2023-01-10T16:26:50.828Z,87.33
2023-01-10T16:29:20.430Z,86.77
2023-01-10T16:31:47.490Z,87.03
2023-01-10T16:34:14.798Z,87.08
2023-01-10T16:36:43.635Z,86.52
2023-01-10T16:39:19.316Z,86.55
2023-01-10T16:42:05.553Z,86.57
2023-01-10T16:44:34.296Z,86.86
2023-01-10T16:47:02.121Z,86.92
2023-01-10T16:49:29.623Z,87.15
2023-01-10T16:51:57.798Z,87.04
2023-01-10T16:54:25.826Z,86.74
2023-01-10T16:56:54.540Z,86.54
2023-01-10T16:59:33.491Z,86.63
2023-01-10T17:02:00.706Z,86.17
2023-01-10T17:04:34.909Z,86.38
2023-01-10T17:07:02.088Z,86.42
2023-01-10T17:09:31.107Z,86.74
2023-01-10T17:12:03.652Z,86.69
2023-01-10T17:14:38.647Z,86.09
2023-01-10T17:17:05.810Z,86.45
2023-01-10T17:19:32.858Z,86.42
2023-01-10T17:22:00.391Z,86.56
2023-01-10T17:24:29.580Z,85.74
2023-01-10T17:26:56.675Z,85.88
2023-01-10T17:29:23.627Z,85.76
2023-01-10T17:31:50.706Z,85.27
2023-01-10T17:34:17.789Z,85.25
2023-01-10T17:37:05.026Z,84.77
2023-01-10T17:39:37.522Z,84.41
2023-01-10T17:42:06.271Z,84.58
2023-01-10T17:44:33.380Z,84.37
2023-01-10T17:47:00.391Z,85.39
2023-01-10T17:49:27.314Z,84.41
2023-01-10T17:51:54.792Z,84.68
2023-01-10T17:54:22.119Z,84.24
2023-01-10T17:56:49.019Z,84.06
2023-01-10T17:59:15.931Z,83.82
2023-01-10T18:01:43.087Z,84.04
2023-01-10T18:04:10.087Z,84.13
2023-01-10T18:06:37.269Z,84.00
2023-01-10T18:09:04.764Z,83.46
2023-01-10T18:11:33.608Z,83.76
2023-01-10T18:14:20.534Z,84.20
2023-01-10T18:16:47.575Z,83.51
2023-01-10T18:19:14.548Z,83.75
2023-01-10T18:21:41.573Z,83.31
2023-01-10T18:24:08.547Z,83.13
2023-01-10T18:26:35.532Z,83.50
2023-01-10T18:29:02.682Z,82.67
2023-01-10T18:31:29.631Z,83.09
2023-01-10T18:33:57.002Z,83.02
2023-01-10T18:36:24.517Z,82.58
2023-01-10T18:38:52.167Z,82.67
2023-01-10T18:41:20.552Z,82.59
2023-01-10T18:43:48.224Z,82.40
2023-01-10T18:46:22.763Z,82.61
2023-01-10T18:48:52.728Z,82.36
2023-01-10T18:51:19.917Z,82.48
2023-01-10T18:53:47.606Z,81.92
2023-01-10T18:56:15.948Z,82.26
2023-01-10T18:58:43.244Z,82.25
2023-01-10T19:01:12.835Z,82.10
2023-01-10T19:03:40.348Z,82.76
2023-01-10T19:06:14.302Z,81.93
2023-01-10T19:08:42.574Z,82.28
2023-01-10T19:11:14.265Z,81.90
2023-01-10T19:13:43.520Z,81.85
2023-01-10T19:16:28.194Z,81.55
2023-01-10T19:19:05.392Z,81.96
2023-01-10T19:21:33.853Z,82.27
2023-01-10T19:24:04.343Z,82.08
2023-01-10T19:26:32.077Z,82.26
2023-01-10T19:28:59.195Z,82.48
2023-01-10T19:31:28.818Z,82.38
2023-01-10T19:34:00.187Z,82.33
2023-01-10T19:36:28.313Z,82.54
2023-01-10T19:38:57.589Z,81.82
2023-01-10T19:41:26.919Z,82.28
2023-01-10T19:44:03.381Z,82.07
2023-01-10T19:46:36.799Z,82.30
2023-01-10T19:49:08.357Z,82.12
2023-01-10T19:51:40.603Z,81.82
2023-01-10T19:54:08.944Z,82.12
2023-01-10T19:56:36.520Z,82.07
2023-01-10T19:59:03.721Z,82.44
2023-01-10T20:01:31.855Z,82.49
2023-01-10T20:04:01.986Z,82.43
2023-01-10T20:06:32.343Z,82.60
2023-01-10T20:08:59.352Z,82.39
2023-01-10T20:11:37.037Z,82.54
2023-01-10T20:14:12.136Z,82.22
2023-01-10T20:16:39.087Z,82.27
2023-01-10T20:19:09.606Z,82.90
2023-01-10T20:21:43.892Z,82.74
2023-01-10T20:24:20.144Z,82.36
2023-01-10T20:26:49.435Z,82.13
2023-01-10T20:29:17.074Z,82.55
2023-01-10T20:31:47.884Z,82.95
2023-01-10T20:34:14.997Z,82.72
2023-01-10T20:36:41.916Z,82.76
2023-01-10T20:39:08.890Z,82.73
2023-01-10T20:41:37.143Z,82.70
2023-01-10T20:44:04.247Z,82.38
2023-01-10T20:46:32.757Z,82.59
2023-01-10T20:49:02.603Z,82.45
2023-01-10T20:51:38.775Z,82.01
2023-01-10T20:54:08.149Z,82.58
2023-01-10T20:56:35.303Z,82.16
2023-01-10T20:59:03.110Z,82.45
2023-01-10T21:01:34.851Z,82.55
2023-01-10T21:04:05.093Z,82.36
2023-01-10T21:06:33.027Z,82.82
2023-01-10T21:09:00.476Z,82.47
2023-01-10T21:11:27.546Z,82.35
2023-01-10T21:13:54.588Z,82.84
2023-01-10T21:16:22.310Z,82.62
2023-01-10T21:18:50.480Z,82.71
2023-01-10T21:21:25.024Z,82.41
2023-01-10T21:23:54.472Z,82.30
2023-01-10T21:26:22.166Z,82.41
2023-01-10T21:28:49.069Z,82.16
2023-01-10T21:31:19.773Z,82.58
2023-01-10T21:33:47.039Z,82.50
2023-01-10T21:36:14.034Z,82.13
2023-01-10T21:38:41.584Z,82.22
2023-01-10T21:41:14.004Z,82.55
2023-01-10T21:43:45.167Z,82.21
2023-01-10T21:46:12.134Z,82.46
2023-01-10T21:48:39.035Z,82.43
2023-01-10T21:51:06.131Z,82.73
2023-01-10T21:53:33.210Z,82.34
2023-01-10T21:56:00.251Z,82.32
2023-01-10T21:58:27.547Z,82.53
2023-01-10T22:01:01.399Z,82.61
2023-01-10T22:03:30.791Z,82.75
2023-01-10T22:05:57.751Z,82.71
2023-01-10T22:08:24.651Z,82.70
2023-01-10T22:10:51.545Z,82.84
2023-01-10T22:13:18.527Z,82.79
2023-01-10T22:15:45.575Z,83.10
2023-01-10T22:18:12.508Z,82.96
2023-01-10T22:20:43.261Z,83.29
2023-01-10T22:23:10.159Z,83.22
2023-01-10T22:25:37.164Z,83.32
2023-01-10T22:28:04.149Z,83.33
2023-01-10T22:30:31.092Z,83.18
2023-01-10T22:32:58.023Z,83.45
2023-01-10T22:35:26.224Z,83.12
2023-01-10T22:37:55.963Z,83.35
2023-01-10T22:40:23.598Z,83.30
2023-01-10T22:42:52.428Z,83.34
2023-01-10T22:45:19.435Z,83.29
2023-01-10T22:47:49.520Z,83.43
2023-01-10T22:50:19.457Z,82.93
2023-01-10T22:52:50.174Z,83.25
2023-01-10T22:55:18.202Z,83.21
2023-01-10T22:57:47.393Z,82.77
2023-01-10T23:00:15.311Z,82.77
2023-01-10T23:02:42.390Z,82.70
2023-01-10T23:05:09.587Z,82.79
2023-01-10T23:07:36.508Z,82.90
2023-01-10T23:10:08.449Z,83.02
2023-01-10T23:12:39.119Z,82.78
2023-01-10T23:15:06.686Z,83.23
2023-01-10T23:17:33.693Z,83.35
2023-01-10T23:20:00.597Z,83.53
2023-01-10T23:22:27.554Z,83.51
2023-01-10T23:24:54.603Z,83.47
2023-01-10T23:27:21.529Z,83.36
2023-01-10T23:29:49.322Z,83.30
2023-01-10T23:32:16.238Z,83.57
2023-01-10T23:34:43.166Z,83.97
2023-01-10T23:37:10.323Z,83.72
2023-01-10T23:39:37.263Z,83.94
2023-01-10T23:42:04.287Z,84.11
2023-01-10T23:44:31.503Z,84.16
2023-01-10T23:46:58.478Z,84.69
2023-01-10T23:49:25.500Z,84.43
2023-01-10T23:51:52.425Z,84.27
2023-01-10T23:54:19.343Z,84.36
2023-01-10T23:56:46.293Z,84.39
2023-01-10T23:59:13.250Z,84.25
